Time;durP1;ratioP1;P1;durP2;ratioP2;P2;SDS_P1;SDS_P2;PMS_P1;PMS_P2;Temp;Humidity;BMP_temperature;BMP_pressure;BME280_temperature;BME280_humidity;BME280_pressure;Samples;Min_cycle;Max_cycle;Signal;HPM_P1;HPM_P2
2021/04/02 14:01:29;;;;;;;9.30;2.70;;;17.60;50.70;;;;;;10510038;27;20801;-65
2021/04/02 14:06:51;;;;;;;5.13;2.00;;;18.80;47.30;;;;;;10400951;28;20198;-64
2021/04/02 14:12:13;;;;;;;9.10;2.30;;;18.80;47.00;;;;;;10402417;28;20324;-65
2021/04/02 14:17:36;;;;;;;4.47;1.77;;;19.00;46.50;;;;;;10366745;28;20223;-64
2021/04/02 14:22:57;;;;;;;6.77;2.03;;;19.10;46.00;;;;;;10359196;28;20294;-65
2021/04/02 14:28:19;;;;;;;4.43;1.90;;;19.20;46.10;;;;;;10398954;28;20190;-64
2021/04/02 14:33:42;;;;;;;5.70;2.30;;;19.30;45.80;;;;;;10398458;28;20225;-64
2021/04/02 14:39:04;;;;;;;5.73;2.23;;;19.30;45.20;;;;;;10399273;28;20225;-63
2021/04/02 14:44:26;;;;;;;3.90;1.67;;;19.30;45.30;;;;;;10384809;28;20218;-62
2021/04/02 14:49:49;;;;;;;9.97;2.57;;;19.30;45.90;;;;;;10358581;28;20556;-64
2021/04/02 14:55:11;;;;;;;4.90;2.03;;;19.30;46.10;;;;;;10363801;28;20416;-61
2021/04/02 15:00:33;;;;;;;5.07;2.10;;;19.30;45.70;;;;;;10358802;28;20234;-60
2021/04/02 15:05:56;;;;;;;3.83;1.93;;;19.30;46.20;;;;;;10383951;28;20201;-60
2021/04/02 15:11:18;;;;;;;4.07;1.77;;;19.40;46.20;;;;;;10376451;28;20233;-68
2021/04/02 15:16:39;;;;;;;7.40;2.10;;;19.50;46.30;;;;;;10336719;28;20207;-60
2021/04/02 15:22:02;;;;;;;5.60;1.90;;;19.30;46.50;;;;;;10350742;28;20242;-59
2021/04/02 15:27:24;;;;;;;7.07;2.40;;;19.30;46.60;;;;;;10359025;28;20198;-57
2021/04/02 15:32:47;;;;;;;7.47;2.37;;;19.30;46.60;;;;;;10370710;28;20583;-60
2021/04/02 15:38:10;;;;;;;5.70;2.20;;;19.30;46.70;;;;;;10369178;28;20222;-58
2021/04/02 15:43:31;;;;;;;6.23;2.30;;;19.30;46.90;;;;;;10358551;28;20588;-60
2021/04/02 15:48:53;;;;;;;4.73;2.57;;;19.20;47.00;;;;;;10329988;28;20218;-59
2021/04/02 15:54:15;;;;;;;4.93;2.20;;;19.30;47.00;;;;;;10329705;28;20667;-61
2021/04/02 15:59:37;;;;;;;4.57;2.20;;;19.20;46.90;;;;;;10368327;28;20225;-60
2021/04/02 16:04:59;;;;;;;3.47;2.07;;;19.20;46.90;;;;;;10366894;28;20294;-58
2021/04/02 16:15:30;;;;;;;5.07;2.17;;;19.20;47.20;;;;;;10362278;28;20238;-60
2021/04/02 16:20:52;;;;;;;4.23;1.83;;;19.20;47.00;;;;;;10366556;28;20233;-61
2021/04/02 16:26:14;;;;;;;3.83;1.90;;;19.20;47.10;;;;;;10371614;28;20198;-61
2021/04/02 16:31:37;;;;;;;3.73;1.50;;;19.20;47.10;;;;;;10327765;28;20241;-55
2021/04/02 16:36:58;;;;;;;4.33;1.73;;;19.20;47.20;;;;;;10338580;28;20273;-58
2021/04/02 16:42:20;;;;;;;4.80;2.10;;;19.30;47.00;;;;;;10369941;28;20241;-58
2021/04/02 16:47:43;;;;;;;5.20;1.90;;;19.30;47.30;;;;;;10368794;28;20231;-58
2021/04/02 16:53:05;;;;;;;4.23;1.90;;;19.20;46.90;;;;;;10369432;28;20229;-60
2021/04/02 16:58:26;;;;;;;7.87;1.77;;;19.20;47.10;;;;;;10368491;28;20353;-60
2021/04/02 17:03:49;;;;;;;5.07;2.07;;;19.20;47.20;;;;;;10365214;28;20237;-60
2021/04/02 17:09:10;;;;;;;4.30;2.10;;;19.20;46.90;;;;;;10366455;28;20193;-59
2021/04/02 17:14:34;;;;;;;3.53;1.77;;;19.20;46.80;;;;;;10358984;28;20217;-60
2021/04/02 17:19:57;;;;;;;6.67;2.30;;;19.20;46.90;;;;;;10355511;28;20707;-60
2021/04/02 17:25:19;;;;;;;6.77;2.17;;;19.20;47.00;;;;;;10362634;28;20676;-58
2021/04/02 17:30:40;;;;;;;7.73;2.33;;;19.20;46.90;;;;;;10361368;28;20683;-60
2021/04/02 17:36:03;;;;;;;5.73;2.13;;;19.20;46.90;;;;;;10355291;28;20206;-60
2021/04/02 17:41:25;;;;;;;4.90;2.03;;;19.20;46.90;;;;;;10356441;28;20232;-60
2021/04/02 17:46:47;;;;;;;4.80;2.07;;;19.20;47.00;;;;;;10360021;28;20198;-62
2021/04/02 17:52:12;;;;;;;4.10;1.90;;;19.20;47.00;;;;;;10361110;28;20221;-59
2021/04/02 17:57:33;;;;;;;6.43;2.00;;;19.20;46.90;;;;;;10360529;28;20218;-59
2021/04/02 18:02:55;;;;;;;4.30;1.90;;;19.20;46.70;;;;;;10360117;28;20214;-60
2021/04/02 18:08:18;;;;;;;6.83;2.30;;;19.20;47.00;;;;;;10361370;28;20277;-61
2021/04/02 18:13:39;;;;;;;6.33;2.20;;;19.20;47.00;;;;;;10360923;28;20305;-61
2021/04/02 18:19:01;;;;;;;3.87;2.00;;;19.10;47.00;;;;;;10361500;28;20214;-60
2021/04/02 18:24:23;;;;;;;4.80;2.17;;;19.20;47.00;;;;;;10360090;28;20222;-61
2021/04/02 18:29:45;;;;;;;4.33;2.10;;;19.10;46.90;;;;;;10365166;28;20198;-61
2021/04/02 18:35:09;;;;;;;6.93;2.20;;;19.20;46.50;;;;;;10364106;28;20202;-58
2021/04/02 18:40:31;;;;;;;5.33;1.87;;;19.20;46.70;;;;;;10355603;28;20214;-57
2021/04/02 18:45:53;;;;;;;5.07;2.10;;;19.30;46.70;;;;;;10363783;28;20202;-60
2021/04/02 18:51:14;;;;;;;6.03;2.00;;;19.30;46.80;;;;;;10349201;28;20435;-59
2021/04/02 18:56:37;;;;;;;6.97;2.47;;;19.40;47.10;;;;;;10357299;28;20572;-59
2021/04/02 19:02:01;;;;;;;5.90;2.10;;;19.40;47.50;;;;;;10360519;28;20696;-59
2021/04/02 19:07:22;;;;;;;6.37;2.27;;;19.40;47.70;;;;;;10329011;28;20195;-59
2021/04/02 19:12:45;;;;;;;4.30;1.77;;;19.40;47.90;;;;;;10329126;28;20231;-59
2021/04/02 19:18:07;;;;;;;9.47;2.40;;;19.40;47.80;;;;;;10349590;28;20560;-58
2021/04/02 19:23:28;;;;;;;10.37;2.50;;;20.00;47.00;;;;;;10369635;28;20959;-59
2021/04/02 19:28:52;;;;;;;7.67;2.77;;;20.40;46.10;;;;;;10372828;28;20198;-59
2021/04/02 19:34:14;;;;;;;7.70;1.97;;;19.80;47.20;;;;;;10372646;28;20227;-58
2021/04/02 19:39:36;;;;;;;5.63;2.13;;;19.70;47.60;;;;;;10373532;28;20588;-58
2021/04/02 19:44:58;;;;;;;5.23;2.20;;;19.60;47.90;;;;;;10373261;28;20209;-59
2021/04/02 19:50:20;;;;;;;5.57;1.97;;;19.60;48.10;;;;;;10371651;28;20218;-60
2021/04/02 19:55:42;;;;;;;7.50;2.37;;;19.50;48.50;;;;;;10372808;28;20206;-59
2021/04/02 20:01:05;;;;;;;6.47;2.23;;;19.60;48.40;;;;;;10371773;28;20222;-60
2021/04/02 20:06:27;;;;;;;5.57;2.20;;;19.60;48.50;;;;;;10372295;28;20690;-59
2021/04/02 20:11:49;;;;;;;4.13;2.07;;;19.60;48.60;;;;;;10372033;28;20222;-59
2021/04/02 20:17:11;;;;;;;4.40;2.30;;;19.60;48.70;;;;;;10366227;28;20881;-60
2021/04/02 20:22:33;;;;;;;6.87;2.47;;;19.60;48.80;;;;;;10370990;28;20241;-60
2021/04/02 20:27:54;;;;;;;4.83;2.03;;;19.60;48.80;;;;;;10371761;28;20191;-59
2021/04/02 20:33:17;;;;;;;4.93;2.13;;;19.60;48.70;;;;;;10370907;28;20249;-60
2021/04/02 20:38:42;;;;;;;3.20;1.70;;;19.60;49.30;;;;;;10371366;28;20215;-59
2021/04/02 20:44:04;;;;;;;5.03;2.10;;;19.60;48.80;;;;;;10368742;28;20286;-57
2021/04/02 20:49:27;;;;;;;4.53;1.63;;;19.60;48.90;;;;;;10330107;28;20238;-61
2021/04/02 20:54:48;;;;;;;4.67;1.83;;;19.60;49.00;;;;;;10330180;28;20191;-59
2021/04/02 21:00:13;;;;;;;5.97;1.97;;;19.60;49.10;;;;;;10331464;28;20669;-61
2021/04/02 21:05:37;;;;;;;3.53;1.80;;;19.60;49.20;;;;;;10321966;28;20231;-61
2021/04/02 21:10:58;;;;;;;6.07;1.87;;;19.50;49.50;;;;;;10363259;28;20233;-60
2021/04/02 21:16:20;;;;;;;5.30;1.60;;;19.40;49.60;;;;;;10359732;28;20541;-61
2021/04/02 21:21:44;;;;;;;3.83;1.70;;;19.40;49.70;;;;;;10368571;28;20222;-59
2021/04/02 21:27:06;;;;;;;4.47;1.77;;;19.40;49.80;;;;;;10365518;28;20241;-59
2021/04/02 21:32:28;;;;;;;3.40;1.70;;;19.40;49.80;;;;;;10367991;28;20569;-60
2021/04/02 21:37:51;;;;;;;4.90;1.90;;;19.40;49.90;;;;;;10369759;28;20289;-59
2021/04/02 21:43:13;;;;;;;3.80;2.13;;;19.40;50.00;;;;;;10348358;28;20222;-61
2021/04/02 21:48:35;;;;;;;6.10;2.00;;;19.30;49.90;;;;;;10367403;28;20194;-60
2021/04/02 21:53:57;;;;;;;5.43;1.83;;;19.40;50.10;;;;;;10367794;28;20226;-60
2021/04/02 21:59:19;;;;;;;4.87;1.60;;;19.30;50.00;;;;;;10366573;28;20221;-60
2021/04/02 22:04:41;;;;;;;3.67;1.57;;;19.30;50.00;;;;;;10368698;28;20202;-61
2021/04/02 22:10:05;;;;;;;4.50;1.63;;;19.30;49.90;;;;;;10368324;28;20218;-61
2021/04/02 22:15:26;;;;;;;4.23;1.47;;;19.30;49.90;;;;;;10429392;22;20232;-72
2021/04/02 22:20:48;;;;;;;4.87;1.87;;;19.30;50.00;;;;;;10413890;28;20229;-73
2021/04/02 22:26:12;;;;;;;5.63;2.00;;;19.20;49.90;;;;;;10418818;28;20669;-69
2021/04/02 22:31:34;;;;;;;5.40;2.00;;;19.20;49.90;;;;;;10418877;28;20267;-70
2021/04/02 22:36:55;;;;;;;4.60;2.07;;;19.20;49.90;;;;;;10416238;28;20224;-70
2021/04/02 22:42:18;;;;;;;5.17;2.00;;;19.20;49.80;;;;;;10417885;28;20589;-69
2021/04/02 22:47:39;;;;;;;3.23;1.80;;;19.20;49.90;;;;;;10412978;28;20201;-68
2021/04/02 22:53:01;;;;;;;3.87;1.53;;;19.20;49.90;;;;;;10417600;28;20222;-69
2021/04/02 22:58:25;;;;;;;4.03;1.90;;;19.20;49.90;;;;;;10418211;28;20209;-70
2021/04/02 23:03:47;;;;;;;4.30;1.70;;;19.20;50.00;;;;;;10417203;28;20217;-69
2021/04/02 23:09:09;;;;;;;5.07;1.67;;;19.20;49.90;;;;;;10417664;28;20193;-69
2021/04/02 23:14:32;;;;;;;2.27;1.30;;;19.20;49.90;;;;;;10380567;28;20230;-69
2021/04/02 23:19:53;;;;;;;5.83;1.63;;;19.20;49.90;;;;;;10415549;28;20221;-70
2021/04/02 23:25:16;;;;;;;3.53;1.80;;;19.20;49.90;;;;;;10376200;28;20219;-70
2021/04/02 23:30:39;;;;;;;6.30;1.77;;;19.10;49.90;;;;;;10374765;28;20620;-68
2021/04/02 23:36:00;;;;;;;4.10;1.70;;;19.10;49.90;;;;;;10375596;28;20264;-69
2021/04/02 23:41:22;;;;;;;4.87;1.50;;;19.10;50.00;;;;;;10380742;28;20217;-69
2021/04/02 23:46:45;;;;;;;3.47;2.13;;;19.10;50.00;;;;;;10415322;28;20194;-70
2021/04/02 23:52:07;;;;;;;3.77;1.80;;;19.10;49.90;;;;;;10413352;28;20260;-68
2021/04/02 23:57:28;;;;;;;4.23;2.00;;;19.10;49.90;;;;;;10404770;28;20205;-70
